createdAt,value
2017-09-13T00:00:02.551Z,79.9
2017-09-13T00:01:03.953Z,79.8
2017-09-13T00:02:25.441Z,80.1
2017-09-13T00:03:26.842Z,80.0
2017-09-13T00:04:48.350Z,79.6
2017-09-13T00:05:49.757Z,80.2
2017-09-13T00:07:11.250Z,79.4
2017-09-13T00:08:12.648Z,79.3
2017-09-13T00:09:34.139Z,80.0
2017-09-13T00:10:35.540Z,79.8
2017-09-13T00:11:57.052Z,79.9
2017-09-13T00:12:58.457Z,80.2
2017-09-13T00:14:19.940Z,80.0
2017-09-13T00:15:21.340Z,79.4
2017-09-13T00:16:42.850Z,78.8
2017-09-13T00:17:44.253Z,79.4
2017-09-13T00:19:05.742Z,79.4
2017-09-13T00:20:07.142Z,79.5
2017-09-13T00:21:28.649Z,79.1
2017-09-13T00:22:30.049Z,79.3
2017-09-13T00:23:51.538Z,79.2
2017-09-13T00:24:52.937Z,79.7
2017-09-13T00:26:14.448Z,79.1
2017-09-13T00:27:15.863Z,79.4
2017-09-13T00:28:37.352Z,79.5
2017-09-13T00:29:38.751Z,79.1
2017-09-13T00:31:00.259Z,79.0
2017-09-13T00:32:01.659Z,79.1
2017-09-13T00:33:23.147Z,79.2
2017-09-13T00:34:24.549Z,79.2
2017-09-13T00:35:46.059Z,79.3
2017-09-13T00:36:47.460Z,79.2
2017-09-13T00:38:08.952Z,79.4
2017-09-13T00:39:10.351Z,79.4
2017-09-13T00:40:31.864Z,79.1
2017-09-13T00:41:33.267Z,78.4
2017-09-13T00:42:54.757Z,78.5
2017-09-13T00:43:56.158Z,78.5
2017-09-13T00:45:18.665Z,77.7
2017-09-13T00:46:20.062Z,77.7
2017-09-13T00:47:41.551Z,77.8
2017-09-13T00:48:42.952Z,77.7
2017-09-13T00:50:04.463Z,77.9
2017-09-13T00:51:05.866Z,78.1
2017-09-13T00:52:27.359Z,77.9
2017-09-13T00:53:28.757Z,78.1
2017-09-13T00:54:50.248Z,77.4
2017-09-13T00:55:51.647Z,77.8
2017-09-13T00:57:13.161Z,77.8
2017-09-13T00:58:14.560Z,78.1
2017-09-13T00:59:36.046Z,77.5
2017-09-13T01:00:37.445Z,77.7
2017-09-13T01:01:58.951Z,77.6
2017-09-13T01:03:00.359Z,77.6
2017-09-13T01:04:21.843Z,77.8
2017-09-13T01:05:23.243Z,77.9
2017-09-13T01:06:44.948Z,77.7
2017-09-13T01:07:46.348Z,77.7
2017-09-13T01:09:07.842Z,77.9
2017-09-13T01:10:09.239Z,78.0
2017-09-13T01:11:30.748Z,77.8
2017-09-13T01:12:32.153Z,78.0
2017-09-13T01:13:53.643Z,78.1
2017-09-13T01:14:55.046Z,77.7
2017-09-13T01:16:16.556Z,77.5
2017-09-13T01:17:17.958Z,77.3
2017-09-13T01:18:39.444Z,77.6
2017-09-13T01:19:40.844Z,77.9
2017-09-13T01:21:02.356Z,77.7
2017-09-13T01:22:03.758Z,77.6
2017-09-13T01:23:25.243Z,77.5
2017-09-13T01:24:26.644Z,77.3
2017-09-13T01:25:48.151Z,77.4
2017-09-13T01:26:49.557Z,77.2
2017-09-13T01:28:11.045Z,78.0
2017-09-13T01:29:12.444Z,77.3
2017-09-13T01:30:33.951Z,77.5
2017-09-13T01:31:35.351Z,77.4
2017-09-13T01:32:56.838Z,77.1
2017-09-13T01:33:58.239Z,77.2
2017-09-13T01:35:19.768Z,77.2
2017-09-13T01:36:21.171Z,77.2
2017-09-13T01:37:42.658Z,77.6
2017-09-13T01:38:44.059Z,77.0
2017-09-13T01:40:05.548Z,77.1
2017-09-13T01:41:06.949Z,77.1
2017-09-13T01:42:28.460Z,77.4
2017-09-13T01:43:29.861Z,77.1
2017-09-13T01:44:51.346Z,77.1
2017-09-13T01:45:52.748Z,77.1
2017-09-13T01:47:14.256Z,77.0
2017-09-13T01:48:15.657Z,76.9
2017-09-13T01:49:37.143Z,77.0
2017-09-13T01:50:38.546Z,76.9
2017-09-13T01:52:00.053Z,76.9
2017-09-13T01:53:01.454Z,76.6
2017-09-13T01:54:22.943Z,76.8
2017-09-13T01:55:24.344Z,76.6
2017-09-13T01:56:45.855Z,76.2
2017-09-13T01:57:47.258Z,76.8
2017-09-13T01:59:08.745Z,75.8
2017-09-13T02:00:10.147Z,76.0
2017-09-13T02:01:31.656Z,76.2
2017-09-13T02:02:33.059Z,76.2
2017-09-13T02:03:54.542Z,76.2
2017-09-13T02:04:55.947Z,75.6
2017-09-13T02:06:17.455Z,76.1
2017-09-13T02:07:18.855Z,75.9
2017-09-13T02:08:40.349Z,76.3
2017-09-13T02:09:41.749Z,76.4
2017-09-13T02:11:04.253Z,76.3
2017-09-13T02:12:05.653Z,76.3
2017-09-13T02:13:27.145Z,76.4
2017-09-13T02:14:28.544Z,75.9
2017-09-13T02:15:50.058Z,75.7
2017-09-13T02:16:51.458Z,75.8
2017-09-13T02:18:12.943Z,76.1
2017-09-13T02:19:14.343Z,75.8
2017-09-13T02:20:35.837Z,76.1
2017-09-13T02:21:37.234Z,76.0
2017-09-13T02:22:58.741Z,76.6
2017-09-13T02:24:00.144Z,76.5
2017-09-13T02:25:21.632Z,77.1
2017-09-13T02:26:23.038Z,76.3
2017-09-13T02:27:44.545Z,77.2
2017-09-13T02:28:45.945Z,76.9
2017-09-13T02:30:07.439Z,77.1
2017-09-13T02:31:08.838Z,77.1
2017-09-13T02:32:30.348Z,76.8
2017-09-13T02:33:31.750Z,77.6
2017-09-13T02:34:53.236Z,77.5
2017-09-13T02:35:54.636Z,77.3
2017-09-13T02:37:16.146Z,78.1
2017-09-13T02:38:17.547Z,78.7
2017-09-13T02:39:39.041Z,79.3
2017-09-13T02:40:40.431Z,79.4
2017-09-13T02:42:01.952Z,80.5
2017-09-13T02:43:03.354Z,80.3
2017-09-13T02:44:24.851Z,80.2
2017-09-13T02:45:26.249Z,80.0
2017-09-13T02:46:47.756Z,80.8
2017-09-13T02:47:49.158Z,80.0
2017-09-13T02:49:10.647Z,80.7
2017-09-13T02:50:12.057Z,81.0
2017-09-13T02:51:33.560Z,80.9
2017-09-13T02:52:34.962Z,81.4
2017-09-13T02:53:56.450Z,81.5
2017-09-13T02:54:57.848Z,81.8
2017-09-13T02:56:19.357Z,81.6
2017-09-13T02:57:20.757Z,82.0
2017-09-13T02:58:42.244Z,82.6
2017-09-13T02:59:43.648Z,82.6
2017-09-13T03:01:05.160Z,82.1
2017-09-13T03:02:06.562Z,82.3
2017-09-13T03:03:28.044Z,83.0
2017-09-13T03:04:29.446Z,82.7
2017-09-13T03:05:50.938Z,82.9
2017-09-13T03:06:52.341Z,82.6
2017-09-13T03:08:13.851Z,83.3
2017-09-13T03:09:15.262Z,83.3
2017-09-13T03:10:36.739Z,83.6
2017-09-13T03:11:38.141Z,84.3
2017-09-13T03:12:59.651Z,83.9
2017-09-13T03:14:01.049Z,84.0
2017-09-13T03:15:22.537Z,84.6
2017-09-13T03:16:23.937Z,84.6
2017-09-13T03:17:45.453Z,84.8
2017-09-13T03:18:46.855Z,84.9
2017-09-13T03:20:08.345Z,84.5
2017-09-13T03:21:09.752Z,84.9
2017-09-13T03:22:31.262Z,85.3
2017-09-13T03:23:32.665Z,85.8
2017-09-13T03:24:54.150Z,85.8
2017-09-13T03:25:55.549Z,85.6
2017-09-13T03:27:17.057Z,85.8
2017-09-13T03:28:18.458Z,86.3
2017-09-13T03:29:39.947Z,86.3
2017-09-13T03:30:41.350Z,85.9
2017-09-13T03:32:02.885Z,85.8
2017-09-13T03:33:04.259Z,85.7
2017-09-13T03:34:25.743Z,86.8
2017-09-13T03:35:27.143Z,86.8
2017-09-13T03:36:48.651Z,86.6
2017-09-13T03:37:50.056Z,86.6
2017-09-13T03:39:11.539Z,87.0
2017-09-13T03:40:12.943Z,86.9
2017-09-13T03:41:34.454Z,86.3
2017-09-13T03:42:35.854Z,87.4
2017-09-13T03:43:57.348Z,87.0
2017-09-13T03:44:58.748Z,86.9
2017-09-13T03:46:20.241Z,87.4
2017-09-13T03:47:21.641Z,87.2
2017-09-13T03:48:43.149Z,87.4
2017-09-13T03:49:44.550Z,87.6
2017-09-13T03:51:06.038Z,87.5
2017-09-13T03:52:07.439Z,87.4
2017-09-13T03:53:28.947Z,87.4
2017-09-13T03:54:30.347Z,87.4
2017-09-13T03:55:51.835Z,87.7
2017-09-13T03:56:53.236Z,87.6
2017-09-13T03:58:14.743Z,87.6
2017-09-13T03:59:16.155Z,87.5
2017-09-13T04:00:37.648Z,87.4
2017-09-13T04:01:39.047Z,87.7
2017-09-13T04:03:00.744Z,87.2
2017-09-13T04:04:02.143Z,87.6
2017-09-13T04:05:23.630Z,87.9
2017-09-13T04:06:25.028Z,87.6
2017-09-13T04:07:46.539Z,87.3
2017-09-13T04:08:47.940Z,88.2
2017-09-13T04:10:09.426Z,88.1
2017-09-13T04:11:10.834Z,87.5
2017-09-13T04:12:32.343Z,87.5
2017-09-13T04:13:33.944Z,87.2
2017-09-13T04:14:55.825Z,87.4
2017-09-13T04:15:57.177Z,87.3
2017-09-13T04:17:18.718Z,87.0
2017-09-13T04:18:20.138Z,87.5
2017-09-13T04:19:41.626Z,87.2
2017-09-13T04:20:43.026Z,87.1
2017-09-13T04:22:04.573Z,87.1
2017-09-13T04:23:05.973Z,87.0
2017-09-13T04:24:27.463Z,87.1
2017-09-13T04:25:28.863Z,87.2
2017-09-13T04:26:50.372Z,87.2
2017-09-13T04:27:51.776Z,87.2
2017-09-13T04:29:13.268Z,86.9
2017-09-13T04:30:14.666Z,87.0
2017-09-13T04:31:36.157Z,87.0
2017-09-13T04:32:37.558Z,87.2
2017-09-13T04:33:59.074Z,87.0
2017-09-13T04:35:00.887Z,87.1
2017-09-13T04:36:22.384Z,87.2
2017-09-13T04:37:23.781Z,86.9
2017-09-13T04:38:45.293Z,87.1
2017-09-13T04:39:46.728Z,87.0
2017-09-13T04:41:08.217Z,87.6
2017-09-13T04:42:09.617Z,87.4
2017-09-13T04:43:31.125Z,87.2
2017-09-13T04:44:32.526Z,86.9
2017-09-13T04:45:54.017Z,87.2
2017-09-13T04:46:55.415Z,87.8
2017-09-13T04:48:16.924Z,87.6
2017-09-13T04:49:18.330Z,87.4
2017-09-13T04:50:39.819Z,87.8
2017-09-13T04:51:41.220Z,87.1
2017-09-13T04:53:02.728Z,87.5
2017-09-13T04:54:04.128Z,87.5
2017-09-13T04:55:25.806Z,87.2
2017-09-13T04:56:27.758Z,87.6
2017-09-13T04:57:49.244Z,87.5
2017-09-13T04:58:50.648Z,87.9
2017-09-13T05:00:12.137Z,87.5
2017-09-13T05:01:13.545Z,88.5
2017-09-13T05:02:35.052Z,87.9
2017-09-13T05:03:36.455Z,87.3
2017-09-13T05:04:57.943Z,88.3
2017-09-13T05:05:59.348Z,88.1
2017-09-13T05:07:20.872Z,88.0
2017-09-13T05:08:22.280Z,87.5
2017-09-13T05:09:43.773Z,87.8
2017-09-13T05:10:45.174Z,87.4
2017-09-13T05:12:06.689Z,87.5
2017-09-13T05:13:08.142Z,87.3
2017-09-13T05:14:29.634Z,87.5
2017-09-13T05:15:31.035Z,87.9
2017-09-13T05:16:52.531Z,88.3
2017-09-13T05:17:53.951Z,88.5
2017-09-13T05:19:15.452Z,88.8
2017-09-13T05:20:16.860Z,88.1
2017-09-13T05:21:38.349Z,88.2
2017-09-13T05:22:39.786Z,88.7
2017-09-13T05:24:01.266Z,88.8
2017-09-13T05:25:02.670Z,88.6
2017-09-13T05:26:24.166Z,88.9
2017-09-13T05:27:25.572Z,89.1
2017-09-13T05:28:47.085Z,89.0
2017-09-13T05:29:48.491Z,89.1
2017-09-13T05:31:09.988Z,88.9
2017-09-13T05:32:11.391Z,88.7
2017-09-13T05:33:32.900Z,88.7
2017-09-13T05:34:34.305Z,89.0
2017-09-13T05:35:55.792Z,88.7
2017-09-13T05:36:57.197Z,88.9
2017-09-13T05:38:18.706Z,88.9
2017-09-13T05:39:20.116Z,89.3
2017-09-13T05:40:41.603Z,89.2
2017-09-13T05:41:43.006Z,89.4
2017-09-13T05:43:04.522Z,89.2
2017-09-13T05:44:05.925Z,89.1
2017-09-13T05:45:27.417Z,88.6
2017-09-13T05:46:28.820Z,89.4
2017-09-13T05:47:50.340Z,89.2
2017-09-13T05:48:51.741Z,89.4
2017-09-13T05:50:13.231Z,89.2
2017-09-13T05:51:14.637Z,89.2
2017-09-13T05:52:36.156Z,89.2
2017-09-13T05:53:37.568Z,89.2
2017-09-13T05:54:59.052Z,89.6
2017-09-13T05:56:00.452Z,89.2
2017-09-13T05:57:21.966Z,89.2
2017-09-13T05:58:23.372Z,89.6
2017-09-13T05:59:44.868Z,88.7
2017-09-13T06:00:46.270Z,89.2
2017-09-13T06:02:07.761Z,89.2
2017-09-13T06:03:09.163Z,89.3
2017-09-13T06:04:30.678Z,89.4
2017-09-13T06:05:32.081Z,89.8
2017-09-13T06:06:53.574Z,89.2
2017-09-13T06:07:54.986Z,89.9
2017-09-13T06:09:16.509Z,90.0
2017-09-13T06:10:17.922Z,89.7
2017-09-13T06:11:39.413Z,89.9
2017-09-13T06:12:40.819Z,89.9
2017-09-13T06:14:02.337Z,89.9
2017-09-13T06:15:03.738Z,90.2
2017-09-13T06:16:25.233Z,90.1
2017-09-13T06:17:26.635Z,89.3
2017-09-13T06:18:48.148Z,89.3
2017-09-13T06:19:49.554Z,89.2
2017-09-13T06:21:11.045Z,89.2
2017-09-13T06:22:12.450Z,89.3
2017-09-13T06:23:33.971Z,89.2
2017-09-13T06:24:35.376Z,89.4
2017-09-13T06:25:56.866Z,89.5
2017-09-13T06:26:58.271Z,89.3
2017-09-13T06:28:19.784Z,89.2
2017-09-13T06:29:21.188Z,89.2
2017-09-13T06:30:42.680Z,89.5
2017-09-13T06:31:44.081Z,89.6
2017-09-13T06:33:05.599Z,88.9
2017-09-13T06:34:07.006Z,88.8
2017-09-13T06:35:28.500Z,88.8
2017-09-13T06:36:29.905Z,89.0
2017-09-13T06:37:51.415Z,89.0
2017-09-13T06:38:52.827Z,88.6
2017-09-13T06:40:14.320Z,89.2
2017-09-13T06:41:15.733Z,89.3
2017-09-13T06:42:37.246Z,89.3
2017-09-13T06:43:38.657Z,89.7
2017-09-13T06:45:00.164Z,89.7
2017-09-13T06:46:01.570Z,89.7
2017-09-13T06:47:23.064Z,90.2
2017-09-13T06:48:24.473Z,89.9
2017-09-13T06:49:45.984Z,89.9
2017-09-13T06:50:47.391Z,90.2
2017-09-13T06:52:08.881Z,89.7
2017-09-13T06:53:10.286Z,89.9
2017-09-13T06:54:31.801Z,89.6
2017-09-13T06:55:33.206Z,89.3
2017-09-13T06:56:54.698Z,89.3
2017-09-13T06:57:56.107Z,89.7
2017-09-13T06:59:17.619Z,89.3
2017-09-13T07:00:19.030Z,89.2
2017-09-13T07:01:40.525Z,89.7
2017-09-13T07:02:41.932Z,89.7
2017-09-13T07:04:03.448Z,89.3
2017-09-13T07:05:04.857Z,89.3
2017-09-13T07:06:26.355Z,89.3
2017-09-13T07:07:27.763Z,89.2
2017-09-13T07:08:49.286Z,89.1
2017-09-13T07:09:50.692Z,89.4
2017-09-13T07:11:12.188Z,88.5
2017-09-13T07:12:13.593Z,88.2
2017-09-13T07:13:35.109Z,88.2
2017-09-13T07:14:36.518Z,88.0
2017-09-13T07:15:58.019Z,87.8
2017-09-13T07:16:59.422Z,87.6
2017-09-13T07:18:20.937Z,87.3
2017-09-13T07:19:22.349Z,87.4
2017-09-13T07:20:43.849Z,87.0
2017-09-13T07:21:45.255Z,87.2
2017-09-13T07:23:06.771Z,87.0
2017-09-13T07:24:08.178Z,86.8
2017-09-13T07:25:29.677Z,86.8
2017-09-13T07:26:31.100Z,86.7
2017-09-13T07:27:52.580Z,86.5
2017-09-13T07:28:53.987Z,85.8
2017-09-13T07:30:15.504Z,86.0
2017-09-13T07:31:16.908Z,86.0
2017-09-13T07:32:38.401Z,85.4
2017-09-13T07:33:39.807Z,85.8
2017-09-13T07:35:01.323Z,85.6
2017-09-13T07:36:02.733Z,84.7
2017-09-13T07:37:24.231Z,83.4
2017-09-13T07:38:25.636Z,83.3
2017-09-13T07:39:47.155Z,83.7
2017-09-13T07:40:48.565Z,83.4
2017-09-13T07:42:10.058Z,83.6
2017-09-13T07:43:11.464Z,83.4
2017-09-13T07:44:32.980Z,83.3
2017-09-13T07:45:34.391Z,82.8
2017-09-13T07:46:55.882Z,83.0
2017-09-13T07:47:57.299Z,83.2
2017-09-13T07:49:18.808Z,82.9
2017-09-13T07:50:20.221Z,81.6
2017-09-13T07:51:41.714Z,81.1
2017-09-13T07:52:43.122Z,81.8
2017-09-13T07:54:04.636Z,81.1
2017-09-13T07:55:06.046Z,80.4
2017-09-13T07:56:27.543Z,79.9
2017-09-13T07:57:28.952Z,79.4
2017-09-13T07:58:50.474Z,78.5
2017-09-13T07:59:51.883Z,79.1
2017-09-13T08:01:13.382Z,78.8
2017-09-13T08:02:14.791Z,77.8
2017-09-13T08:03:36.309Z,77.3
2017-09-13T08:04:37.720Z,77.8
2017-09-13T08:05:59.214Z,77.4
2017-09-13T08:07:00.622Z,77.4
2017-09-13T08:08:22.143Z,76.7
2017-09-13T08:09:23.551Z,76.2
2017-09-13T08:10:45.049Z,74.6
2017-09-13T08:11:46.457Z,74.5
2017-09-13T08:13:07.956Z,74.8
2017-09-13T08:14:09.366Z,74.5
2017-09-13T08:15:30.884Z,74.8
2017-09-13T08:16:32.291Z,74.5
2017-09-13T08:17:53.791Z,74.5
2017-09-13T08:18:55.199Z,74.1
2017-09-13T08:20:16.721Z,73.3
2017-09-13T08:21:18.130Z,74.2
2017-09-13T08:22:39.628Z,74.1
2017-09-13T08:23:41.036Z,74.1
2017-09-13T08:25:02.552Z,74.4
2017-09-13T08:26:03.960Z,73.5
2017-09-13T08:27:25.461Z,73.2
2017-09-13T08:28:26.872Z,73.8
2017-09-13T08:29:48.382Z,73.8
2017-09-13T08:30:49.792Z,75.3
2017-09-13T08:32:11.289Z,73.5
2017-09-13T08:33:12.699Z,73.3
2017-09-13T08:34:34.213Z,73.4
2017-09-13T08:35:35.626Z,74.0
2017-09-13T08:36:57.160Z,72.9
2017-09-13T08:37:58.528Z,72.4
2017-09-13T08:39:20.051Z,72.2
2017-09-13T08:40:21.459Z,72.8
2017-09-13T08:41:42.959Z,72.0
2017-09-13T08:42:44.365Z,71.8
2017-09-13T08:44:05.893Z,71.3
2017-09-13T08:45:07.297Z,71.7
2017-09-13T08:46:28.795Z,71.5
2017-09-13T08:47:30.202Z,71.2
2017-09-13T08:48:51.722Z,71.7
2017-09-13T08:49:53.132Z,70.4
2017-09-13T08:51:14.628Z,69.7
2017-09-13T08:52:16.035Z,69.1
2017-09-13T08:53:37.552Z,69.8
2017-09-13T08:54:38.961Z,69.4
2017-09-13T08:56:00.462Z,68.9
2017-09-13T08:57:01.873Z,68.3
2017-09-13T08:58:23.415Z,69.9
2017-09-13T08:59:24.825Z,68.7
2017-09-13T09:00:46.341Z,68.8
2017-09-13T09:01:47.752Z,67.6
2017-09-13T09:03:09.250Z,67.1
2017-09-13T09:04:10.659Z,65.8
2017-09-13T09:05:32.178Z,66.4
2017-09-13T09:06:33.589Z,66.1
2017-09-13T09:07:55.091Z,65.6
2017-09-13T09:08:56.501Z,64.7
2017-09-13T09:10:18.019Z,65.2
2017-09-13T09:11:19.431Z,65.8
2017-09-13T09:12:40.930Z,64.2
2017-09-13T09:13:42.341Z,64.2
2017-09-13T09:15:03.869Z,64.1
2017-09-13T09:16:05.277Z,64.0
2017-09-13T09:17:26.776Z,62.3
2017-09-13T09:18:28.185Z,63.8
2017-09-13T09:19:49.707Z,61.9
2017-09-13T09:20:51.120Z,62.1
2017-09-13T09:22:12.620Z,62.4
2017-09-13T09:23:14.029Z,61.0
2017-09-13T09:24:35.550Z,61.1
2017-09-13T09:25:36.960Z,61.2
2017-09-13T09:26:58.462Z,61.7
2017-09-13T09:27:59.872Z,62.0
2017-09-13T09:29:21.415Z,62.4
2017-09-13T09:30:22.830Z,62.7
2017-09-13T09:31:44.329Z,62.1
2017-09-13T09:32:45.739Z,60.7
2017-09-13T09:34:07.259Z,59.9
2017-09-13T09:35:08.669Z,59.9
2017-09-13T09:36:30.170Z,59.6
2017-09-13T09:37:31.581Z,60.4
2017-09-13T09:38:53.121Z,60.2
2017-09-13T09:39:54.532Z,60.0
2017-09-13T09:41:16.039Z,60.5
2017-09-13T09:42:17.446Z,60.4
2017-09-13T09:43:38.945Z,60.6
2017-09-13T09:44:40.355Z,60.3
2017-09-13T09:46:01.891Z,61.2
2017-09-13T09:47:03.295Z,61.1
2017-09-13T09:48:24.793Z,61.4
2017-09-13T09:49:26.203Z,60.4
2017-09-13T09:50:47.726Z,60.3
2017-09-13T09:51:49.145Z,60.6
2017-09-13T09:53:10.645Z,59.8
2017-09-13T09:54:12.055Z,59.9
2017-09-13T09:55:33.574Z,59.8
2017-09-13T09:56:34.987Z,59.2
2017-09-13T09:57:56.495Z,58.3
2017-09-13T09:58:57.911Z,58.7
2017-09-13T10:00:19.430Z,58.9
2017-09-13T10:01:20.842Z,59.1
2017-09-13T10:02:42.343Z,57.4
2017-09-13T10:03:43.753Z,56.9
2017-09-13T10:05:05.274Z,56.6
2017-09-13T10:06:06.687Z,55.1
2017-09-13T10:07:28.192Z,56.3
2017-09-13T10:08:29.615Z,54.8
2017-09-13T10:09:51.131Z,54.2
2017-09-13T10:10:52.542Z,54.0
2017-09-13T10:12:14.536Z,55.3
2017-09-13T10:13:15.952Z,54.0
2017-09-13T10:14:37.473Z,52.7
2017-09-13T10:15:38.905Z,52.2
2017-09-13T10:17:00.388Z,51.5
2017-09-13T10:18:01.799Z,52.4
2017-09-13T10:19:23.322Z,51.0
2017-09-13T10:20:24.735Z,50.0
2017-09-13T10:21:46.241Z,50.0
2017-09-13T10:22:47.651Z,46.8
2017-09-13T10:24:09.156Z,47.6
2017-09-13T10:25:10.567Z,45.7
2017-09-13T10:26:32.091Z,45.2
2017-09-13T10:27:33.503Z,45.5
2017-09-13T10:28:55.008Z,45.7
2017-09-13T10:29:56.420Z,45.3
2017-09-13T10:31:17.940Z,46.8
2017-09-13T10:32:19.352Z,46.5
2017-09-13T10:33:40.855Z,47.8
2017-09-13T10:34:42.261Z,48.5
2017-09-13T10:36:03.788Z,48.3
2017-09-13T10:37:05.203Z,48.3
2017-09-13T10:38:26.702Z,49.0
2017-09-13T10:39:28.113Z,49.4
2017-09-13T10:40:49.631Z,50.8
2017-09-13T10:41:51.043Z,51.8
2017-09-13T10:43:12.552Z,50.9
2017-09-13T10:44:13.957Z,51.1
2017-09-13T10:45:35.478Z,51.9
2017-09-13T10:46:36.891Z,51.2
2017-09-13T10:47:58.390Z,52.2
2017-09-13T10:48:59.799Z,50.4
2017-09-13T10:50:21.323Z,49.7
2017-09-13T10:51:22.735Z,49.3
2017-09-13T10:52:44.237Z,49.3
2017-09-13T10:53:45.647Z,49.5
2017-09-13T10:55:07.168Z,48.2
2017-09-13T10:56:08.580Z,48.5
2017-09-13T10:57:30.082Z,48.8
2017-09-13T10:58:31.493Z,48.9
2017-09-13T10:59:53.017Z,49.8
2017-09-13T11:00:54.434Z,50.2
2017-09-13T11:02:15.955Z,49.1
2017-09-13T11:03:17.369Z,47.9
2017-09-13T11:04:38.895Z,47.3
2017-09-13T11:05:40.305Z,47.8
2017-09-13T11:07:01.808Z,47.3
2017-09-13T11:08:03.217Z,47.9
2017-09-13T11:09:24.725Z,48.5
2017-09-13T11:10:26.136Z,46.4
2017-09-13T11:11:47.659Z,46.3
2017-09-13T11:12:49.072Z,46.3
2017-09-13T11:14:10.576Z,45.6
2017-09-13T11:15:11.986Z,45.7
2017-09-13T11:16:33.512Z,45.7
2017-09-13T11:17:34.923Z,44.6
2017-09-13T11:18:56.426Z,44.6
2017-09-13T11:19:57.837Z,44.6
2017-09-13T11:21:19.364Z,44.6
2017-09-13T11:22:20.777Z,44.7
2017-09-13T11:23:42.278Z,44.5
2017-09-13T11:24:43.688Z,44.3
2017-09-13T11:26:05.213Z,43.1
2017-09-13T11:27:06.625Z,43.4
2017-09-13T11:28:28.126Z,43.0
2017-09-13T11:29:29.537Z,43.6
2017-09-13T11:30:51.062Z,42.0
2017-09-13T11:31:52.473Z,42.8
2017-09-13T11:33:13.982Z,42.7
2017-09-13T11:34:15.391Z,44.3
2017-09-13T11:35:36.913Z,43.8
2017-09-13T11:36:38.328Z,43.1
2017-09-13T11:37:59.826Z,44.3
2017-09-13T11:39:01.236Z,44.1
2017-09-13T11:40:22.759Z,43.3
2017-09-13T11:41:24.172Z,42.6
2017-09-13T11:42:45.678Z,43.1
2017-09-13T11:43:47.089Z,44.0
2017-09-13T11:45:08.611Z,43.8
2017-09-13T11:46:10.022Z,44.9
2017-09-13T11:47:31.524Z,44.1
2017-09-13T11:48:32.934Z,44.3
2017-09-13T11:49:54.458Z,44.6
2017-09-13T11:50:55.869Z,44.5
2017-09-13T11:52:17.372Z,43.9
2017-09-13T11:53:18.784Z,44.0
2017-09-13T11:54:40.283Z,44.5
2017-09-13T11:55:41.692Z,44.1
2017-09-13T11:57:03.214Z,44.8
2017-09-13T11:58:04.625Z,43.9
2017-09-13T11:59:26.128Z,44.1
2017-09-13T12:00:27.539Z,45.6
2017-09-13T12:01:49.056Z,45.0
2017-09-13T12:02:50.472Z,45.4
2017-09-13T12:04:11.966Z,45.2
2017-09-13T12:05:13.375Z,45.4
2017-09-13T12:06:34.897Z,46.6
2017-09-13T12:07:36.313Z,47.3
2017-09-13T12:08:57.806Z,46.5
2017-09-13T12:09:59.217Z,47.4
2017-09-13T12:11:20.735Z,47.0
2017-09-13T12:12:22.145Z,47.4
2017-09-13T12:13:43.649Z,47.2
2017-09-13T12:14:45.059Z,48.1
2017-09-13T12:16:06.579Z,46.5
2017-09-13T12:17:07.990Z,46.1
2017-09-13T12:18:29.493Z,46.3
2017-09-13T12:19:30.903Z,46.6
2017-09-13T12:20:52.424Z,46.7
2017-09-13T12:21:53.837Z,46.9
2017-09-13T12:23:15.336Z,46.5
2017-09-13T12:24:16.744Z,47.0
2017-09-13T12:25:38.263Z,46.7
2017-09-13T12:26:39.674Z,47.3
2017-09-13T12:28:01.393Z,46.5
2017-09-13T12:29:02.826Z,45.6
2017-09-13T12:30:24.432Z,46.4
2017-09-13T12:31:25.858Z,46.1
2017-09-13T12:32:47.365Z,46.7
2017-09-13T12:33:48.773Z,45.8
2017-09-13T12:35:10.329Z,44.6
2017-09-13T12:36:11.751Z,44.5
2017-09-13T12:37:33.314Z,44.6
2017-09-13T12:38:34.732Z,44.5
2017-09-13T12:39:56.234Z,45.1
2017-09-13T12:40:57.721Z,44.3
2017-09-13T12:42:19.306Z,43.2
2017-09-13T12:43:20.714Z,43.9
2017-09-13T12:44:42.222Z,42.3
2017-09-13T12:45:43.718Z,42.6
2017-09-13T12:47:05.273Z,42.7
2017-09-13T12:48:06.689Z,43.1
2017-09-13T12:49:28.193Z,43.1
2017-09-13T12:50:29.603Z,43.5
2017-09-13T12:51:51.120Z,40.3
2017-09-13T12:52:52.533Z,39.9
2017-09-13T12:54:14.032Z,40.0
2017-09-13T12:55:15.442Z,40.2
2017-09-13T12:56:36.986Z,40.2
2017-09-13T12:57:38.395Z,41.4
2017-09-13T12:58:59.897Z,41.0
2017-09-13T13:00:01.305Z,41.8
2017-09-13T13:01:23.094Z,41.2
2017-09-13T13:02:24.612Z,42.3
2017-09-13T13:03:46.302Z,40.7
2017-09-13T13:04:47.719Z,41.9
2017-09-13T13:06:09.241Z,42.0
2017-09-13T13:07:10.652Z,41.5
2017-09-13T13:08:32.152Z,42.2
2017-09-13T13:09:33.643Z,42.4
2017-09-13T13:10:55.222Z,41.8
2017-09-13T13:11:56.715Z,41.9
2017-09-13T13:13:18.297Z,42.2
2017-09-13T13:14:19.708Z,42.2
2017-09-13T13:15:41.295Z,43.1
2017-09-13T13:16:42.704Z,42.7
2017-09-13T13:18:04.305Z,42.8
2017-09-13T13:19:05.717Z,43.2
2017-09-13T13:20:27.216Z,42.9
2017-09-13T13:21:28.677Z,41.6
2017-09-13T13:22:50.201Z,40.9
2017-09-13T13:23:51.619Z,41.4
2017-09-13T13:25:13.116Z,42.1
2017-09-13T13:26:14.531Z,42.2
2017-09-13T13:27:36.104Z,42.2
2017-09-13T13:28:37.543Z,42.5
2017-09-13T13:29:59.042Z,40.2
2017-09-13T13:31:00.481Z,38.2
2017-09-13T13:32:22.039Z,37.8
2017-09-13T13:33:23.461Z,37.6
2017-09-13T13:34:45.001Z,38.4
2017-09-13T13:35:46.428Z,38.3
2017-09-13T13:37:07.957Z,38.6
2017-09-13T13:38:09.368Z,39.1
2017-09-13T13:39:30.871Z,39.2
2017-09-13T13:40:32.280Z,39.6
2017-09-13T13:41:53.800Z,40.5
2017-09-13T13:42:55.211Z,40.5
2017-09-13T13:44:16.711Z,39.4
2017-09-13T13:45:18.131Z,39.5
2017-09-13T13:46:39.650Z,39.4
2017-09-13T13:47:41.056Z,39.8
2017-09-13T13:49:02.560Z,38.9
2017-09-13T13:50:03.967Z,39.4
2017-09-13T13:51:25.492Z,41.0
2017-09-13T13:52:26.902Z,41.5
2017-09-13T13:53:48.403Z,42.3
2017-09-13T13:54:49.813Z,41.4
2017-09-13T13:56:11.332Z,41.5
2017-09-13T13:57:12.741Z,41.6
2017-09-13T13:58:34.244Z,41.1
2017-09-13T13:59:35.653Z,41.8
2017-09-13T14:00:57.175Z,41.8
2017-09-13T14:01:58.585Z,40.2
2017-09-13T14:03:20.087Z,39.7
2017-09-13T14:04:21.495Z,40.6
2017-09-13T14:05:42.995Z,40.7
2017-09-13T14:06:44.406Z,41.1
2017-09-13T14:08:05.929Z,40.3
2017-09-13T14:09:07.338Z,39.6
2017-09-13T14:10:28.837Z,40.1
2017-09-13T14:11:30.247Z,40.5
2017-09-13T14:12:51.771Z,38.9
2017-09-13T14:13:53.188Z,38.0
2017-09-13T14:15:14.685Z,39.0
2017-09-13T14:16:16.092Z,38.2
2017-09-13T14:17:37.620Z,38.5
2017-09-13T14:18:39.031Z,39.1
2017-09-13T14:20:00.534Z,38.0
2017-09-13T14:21:01.942Z,38.6
2017-09-13T14:22:23.463Z,39.1
2017-09-13T14:23:24.876Z,38.9
2017-09-13T14:24:46.377Z,38.1
2017-09-13T14:25:47.786Z,38.9
2017-09-13T14:27:09.309Z,39.4
2017-09-13T14:28:10.721Z,39.4
2017-09-13T14:29:32.237Z,39.9
2017-09-13T14:30:33.646Z,39.4
2017-09-13T14:31:55.167Z,40.3
2017-09-13T14:32:56.579Z,39.4
2017-09-13T14:34:18.079Z,40.0
2017-09-13T14:35:19.490Z,39.4
2017-09-13T14:36:41.989Z,38.7
2017-09-13T14:37:43.356Z,38.9
2017-09-13T14:39:04.854Z,39.2
2017-09-13T14:40:06.265Z,39.5
2017-09-13T14:41:27.869Z,39.3
2017-09-13T14:42:29.273Z,39.3
2017-09-13T14:43:50.866Z,38.5
2017-09-13T14:44:52.352Z,39.4
2017-09-13T14:46:13.866Z,40.1
2017-09-13T14:47:15.284Z,40.5
2017-09-13T14:48:36.792Z,39.7
2017-09-13T14:49:38.207Z,39.9
2017-09-13T14:50:59.721Z,41.5
2017-09-13T14:52:01.133Z,40.2
2017-09-13T14:53:22.654Z,41.6
2017-09-13T14:54:24.065Z,41.9
2017-09-13T14:55:45.568Z,41.3
2017-09-13T14:56:46.977Z,41.7
2017-09-13T14:58:08.496Z,42.4
2017-09-13T14:59:09.906Z,42.1
2017-09-13T15:00:31.405Z,41.9
2017-09-13T15:01:32.819Z,42.4
2017-09-13T15:02:54.339Z,41.4
2017-09-13T15:03:55.747Z,41.2
2017-09-13T15:05:17.251Z,41.5
2017-09-13T15:06:18.660Z,42.0
2017-09-13T15:07:40.214Z,41.6
2017-09-13T15:08:41.625Z,41.7
2017-09-13T15:10:03.126Z,41.5
2017-09-13T15:11:04.534Z,41.5
2017-09-13T15:12:26.056Z,41.5
2017-09-13T15:13:27.464Z,41.8
2017-09-13T15:14:48.961Z,41.5
2017-09-13T15:15:50.373Z,41.6
2017-09-13T15:17:11.888Z,41.5
2017-09-13T15:18:13.298Z,41.6
2017-09-13T15:19:34.796Z,41.7
2017-09-13T15:20:36.220Z,42.2
2017-09-13T15:21:57.733Z,41.7
2017-09-13T15:22:59.141Z,41.9
2017-09-13T15:24:20.639Z,42.3
2017-09-13T15:25:22.051Z,43.0
2017-09-13T15:26:43.569Z,42.4
2017-09-13T15:27:44.983Z,43.0
2017-09-13T15:29:06.482Z,42.4
2017-09-13T15:30:07.890Z,42.8
2017-09-13T15:31:29.409Z,43.0
2017-09-13T15:32:30.818Z,43.5
2017-09-13T15:33:52.323Z,43.6
2017-09-13T15:34:53.735Z,43.6
2017-09-13T15:36:15.227Z,43.7
2017-09-13T15:37:16.633Z,44.7
2017-09-13T15:38:38.153Z,44.9
2017-09-13T15:39:39.566Z,44.7
2017-09-13T15:41:01.068Z,44.7
2017-09-13T15:42:02.479Z,44.7
2017-09-13T15:43:23.993Z,44.5
2017-09-13T15:44:25.404Z,44.7
2017-09-13T15:45:46.901Z,44.5
2017-09-13T15:46:48.312Z,44.7
2017-09-13T15:48:09.832Z,45.3
2017-09-13T15:49:11.244Z,45.3
2017-09-13T15:50:32.740Z,45.1